createdAt,value
2022-08-01T00:00:15.093Z,100968.31
2022-08-01T00:02:44.196Z,100968.31
2022-08-01T00:05:13.374Z,100971.66
2022-08-01T00:07:42.439Z,100968.31
2022-08-01T00:10:13.802Z,100967.97
2022-08-01T00:12:46.088Z,100976.25
2022-08-01T00:15:18.171Z,100976.50
2022-08-01T00:17:47.397Z,100969.81
2022-08-01T00:20:17.247Z,100978.47
2022-08-01T00:22:46.256Z,100971.47
2022-08-01T00:25:15.252Z,100973.38
2022-08-01T00:27:45.694Z,100973.69
2022-08-01T00:30:16.547Z,100968.69
2022-08-01T00:32:45.589Z,100968.22
2022-08-01T00:35:14.665Z,100966.78
2022-08-01T00:37:43.651Z,100975.09
2022-08-01T00:40:13.102Z,100976.16
2022-08-01T00:42:43.774Z,100973.88
2022-08-01T00:45:14.912Z,100974.94
2022-08-01T00:47:43.908Z,100972.66
2022-08-01T00:50:13.801Z,100976.69
2022-08-01T00:52:43.690Z,100979.25
2022-08-01T00:55:21.995Z,100926.44
2022-08-01T00:58:02.384Z,100980.59
2022-08-01T01:00:52.830Z,100935.84
2022-08-01T01:03:58.116Z,100972.00
2022-08-01T01:06:28.155Z,100976.28
2022-08-01T01:09:30.178Z,100974.72
2022-08-01T01:12:09.365Z,100978.72
2022-08-01T01:14:47.812Z,100977.28
2022-08-01T01:17:49.795Z,100975.84
2022-08-01T01:20:14.771Z,100973.53
2022-08-01T01:23:02.069Z,100982.56
2022-08-01T01:26:04.242Z,100974.59
2022-08-01T01:28:37.886Z,100979.41
2022-08-01T01:31:11.048Z,100981.84
2022-08-01T01:33:47.276Z,100963.13
2022-08-01T01:36:19.490Z,100967.16
2022-08-01T01:38:49.862Z,100961.63
2022-08-01T01:41:20.056Z,100973.31
2022-08-01T01:43:50.899Z,100966.72
2022-08-01T01:46:28.219Z,100968.03
2022-08-01T01:48:59.332Z,100970.84
2022-08-01T01:51:29.976Z,100970.03
2022-08-01T01:54:00.403Z,100966.16
2022-08-01T01:56:32.059Z,100966.91
2022-08-01T01:59:03.456Z,100962.84
2022-08-01T02:01:58.831Z,100919.50
2022-08-01T02:04:29.510Z,100957.13
2022-08-01T02:06:59.751Z,100962.75
2022-08-01T02:09:30.776Z,100955.50
2022-08-01T02:12:09.581Z,100959.50
2022-08-01T02:14:41.307Z,100956.94
2022-08-01T02:17:14.100Z,100955.44
2022-08-01T02:19:43.327Z,100955.69
2022-08-01T02:22:16.748Z,100963.31
2022-08-01T02:24:52.675Z,100957.50
2022-08-01T02:27:29.184Z,100967.47
2022-08-01T02:30:02.015Z,100965.72
2022-08-01T02:32:34.594Z,100964.78
2022-08-01T02:35:05.267Z,100965.97
2022-08-01T02:37:41.915Z,100966.94
2022-08-01T02:40:16.011Z,100956.09
2022-08-01T02:42:48.400Z,100935.28
2022-08-01T02:45:20.581Z,100952.75
2022-08-01T02:47:52.499Z,100960.25
2022-08-01T02:50:22.879Z,100958.69
2022-08-01T02:52:53.809Z,100962.63
2022-08-01T02:55:24.041Z,100955.47
2022-08-01T02:57:56.780Z,100955.72
2022-08-01T03:00:30.694Z,100955.72
2022-08-01T03:03:04.092Z,100960.13
2022-08-01T03:05:35.483Z,100957.75
2022-08-01T03:08:05.479Z,100959.97
2022-08-01T03:10:43.498Z,100956.41
2022-08-01T03:13:13.991Z,100955.00
2022-08-01T03:15:44.695Z,100957.75
2022-08-01T03:18:17.562Z,100951.91
2022-08-01T03:20:48.542Z,100950.00
2022-08-01T03:23:19.773Z,100952.75
2022-08-01T03:25:54.140Z,100957.41
2022-08-01T03:28:24.768Z,100959.06
2022-08-01T03:31:01.044Z,100955.47
2022-08-01T03:33:31.951Z,100954.78
2022-08-01T03:36:04.717Z,100951.56
2022-08-01T03:38:38.102Z,100952.41
2022-08-01T03:41:14.464Z,100942.28
2022-08-01T03:43:49.212Z,100948.34
2022-08-01T03:46:25.711Z,100948.09
2022-08-01T03:49:01.275Z,100950.25
2022-08-01T03:51:31.788Z,100947.75
2022-08-01T03:54:03.688Z,100948.22
2022-08-01T03:56:34.097Z,100947.41
2022-08-01T03:59:05.331Z,100941.91
2022-08-01T04:01:36.181Z,100952.03
2022-08-01T04:04:07.562Z,100947.88
2022-08-01T04:06:39.746Z,100949.53
2022-08-01T04:09:13.339Z,100954.19
2022-08-01T04:11:43.366Z,100954.19
2022-08-01T04:14:12.183Z,100940.00
2022-08-01T04:16:41.191Z,100948.94
2022-08-01T04:19:11.622Z,100955.25
2022-08-01T04:21:40.688Z,100969.41
2022-08-01T04:24:14.749Z,100969.66
2022-08-01T04:26:47.918Z,100972.28
2022-08-01T04:29:20.353Z,100971.94
2022-08-01T04:31:51.637Z,100962.78
2022-08-01T04:34:25.717Z,100967.88
2022-08-01T04:36:57.862Z,100965.16
2022-08-01T04:39:29.696Z,100969.44
2022-08-01T04:42:00.015Z,100959.78
2022-08-01T04:44:32.576Z,100967.28
2022-08-01T04:47:02.309Z,100966.22
2022-08-01T04:49:33.961Z,100967.41
2022-08-01T04:52:24.336Z,100969.69
2022-08-01T04:54:53.808Z,100967.03
2022-08-01T04:57:22.697Z,100975.59
2022-08-01T04:59:57.930Z,100972.63
2022-08-01T05:02:29.486Z,100973.81
2022-08-01T05:04:59.866Z,100974.78
2022-08-01T05:07:28.750Z,100986.09
2022-08-01T05:09:57.781Z,100971.56
2022-08-01T05:12:26.734Z,100976.81
2022-08-01T05:14:55.665Z,100968.81
2022-08-01T05:17:24.657Z,100979.31
2022-08-01T05:19:53.538Z,100980.72
2022-08-01T05:22:26.358Z,100980.50
2022-08-01T05:24:55.746Z,100989.88
2022-08-01T05:27:26.338Z,100982.34
2022-08-01T05:29:57.629Z,100977.03
2022-08-01T05:32:26.518Z,100982.63
2022-08-01T05:34:55.721Z,100985.47
2022-08-01T05:37:26.124Z,100980.06
2022-08-01T05:39:55.058Z,100976.22
2022-08-01T05:42:23.910Z,100986.34
2022-08-01T05:44:53.222Z,100979.97
2022-08-01T05:47:22.204Z,100977.19
2022-08-01T05:49:51.182Z,100979.50
2022-08-01T05:52:20.169Z,100985.47
2022-08-01T05:54:50.622Z,100988.41
2022-08-01T05:57:19.698Z,100973.78
2022-08-01T05:59:48.770Z,100982.19
2022-08-01T06:02:17.801Z,100988.13
2022-08-01T06:04:46.782Z,100983.63
2022-08-01T06:07:15.765Z,100983.34
2022-08-01T06:09:44.790Z,100989.53
2022-08-01T06:12:15.291Z,100978.44
2022-08-01T06:14:44.287Z,100979.66
2022-08-01T06:17:13.207Z,100980.44
2022-08-01T06:19:42.182Z,100987.31
2022-08-01T06:22:11.207Z,100975.56
2022-08-01T06:24:40.152Z,100985.47
2022-08-01T06:27:22.140Z,100981.16
2022-08-01T06:29:54.693Z,100978.97
2022-08-01T06:32:27.380Z,100974.06
2022-08-01T06:34:57.256Z,100982.81
2022-08-01T06:37:26.392Z,100972.06
2022-08-01T06:39:55.364Z,100965.41
2022-08-01T06:42:24.967Z,100973.22
2022-08-01T06:44:55.464Z,100970.13
2022-08-01T06:47:24.368Z,100966.78
2022-08-01T06:49:53.233Z,100978.72
2022-08-01T06:52:22.227Z,100981.09
2022-08-01T06:54:51.267Z,100973.66
2022-08-01T06:57:20.233Z,100975.78
2022-08-01T06:59:51.827Z,100968.09
2022-08-01T07:02:25.190Z,100981.47
2022-08-01T07:04:54.144Z,100984.28
2022-08-01T07:07:23.174Z,100992.91
2022-08-01T07:09:52.225Z,100983.00
2022-08-01T07:12:22.204Z,100983.69
2022-08-01T07:14:51.378Z,100988.59
2022-08-01T07:17:21.757Z,100986.16
2022-08-01T07:19:52.236Z,100985.75
2022-08-01T07:22:23.649Z,100988.38
2022-08-01T07:24:54.618Z,100977.78
2022-08-01T07:27:26.032Z,100986.88
2022-08-01T07:29:55.317Z,100981.44
2022-08-01T07:32:25.034Z,100982.63
2022-08-01T07:34:55.458Z,100974.28
2022-08-01T07:37:42.156Z,100994.31
2022-08-01T07:40:14.855Z,100992.84
2022-08-01T07:42:46.156Z,100988.41
2022-08-01T07:45:15.694Z,100980.66
2022-08-01T07:47:44.634Z,100988.91
2022-08-01T07:50:15.306Z,100984.63
2022-08-01T07:52:44.707Z,100981.03
2022-08-01T07:55:16.292Z,100984.63
2022-08-01T07:57:46.197Z,100988.38
2022-08-01T08:00:16.029Z,100953.09
2022-08-01T08:02:45.347Z,100978.03
2022-08-01T08:05:15.771Z,100975.94
2022-08-01T08:08:07.034Z,100979.84
2022-08-01T08:10:36.101Z,100967.72
2022-08-01T08:13:05.345Z,100981.31
2022-08-01T08:15:34.585Z,100974.38
2022-08-01T08:18:03.636Z,100980.75
2022-08-01T08:20:34.336Z,100982.13
2022-08-01T08:23:41.635Z,100978.78
2022-08-01T08:26:12.727Z,100981.19
2022-08-01T08:28:41.924Z,100983.69
2022-08-01T08:31:25.468Z,100984.00
2022-08-01T08:34:00.085Z,100980.91
2022-08-01T08:36:31.471Z,100983.56
2022-08-01T08:39:01.838Z,100982.75
2022-08-01T08:41:37.831Z,100983.69
2022-08-01T08:44:10.393Z,100985.59
2022-08-01T08:46:45.275Z,100988.91
2022-08-01T08:49:16.948Z,100982.13
2022-08-01T08:51:51.203Z,100986.06
2022-08-01T08:54:30.947Z,100989.53
2022-08-01T08:57:02.396Z,100935.00
2022-08-01T08:59:31.662Z,100982.84
2022-08-01T09:02:01.380Z,100974.19
2022-08-01T09:04:30.475Z,100976.03
2022-08-01T09:07:00.919Z,100973.56
2022-08-01T09:09:29.897Z,100980.47
2022-08-01T09:12:00.897Z,100974.78
2022-08-01T09:14:31.686Z,100956.03
2022-08-01T09:17:07.926Z,100976.06
2022-08-01T09:19:42.495Z,100950.25
2022-08-01T09:22:14.402Z,100975.84
2022-08-01T09:25:02.985Z,100967.47
2022-08-01T09:27:32.746Z,100976.66
2022-08-01T09:30:11.986Z,100976.84
2022-08-01T09:32:57.095Z,100974.88
2022-08-01T09:35:31.299Z,100972.66
2022-08-01T09:38:19.467Z,100970.00
2022-08-01T09:40:58.461Z,100970.09
2022-08-01T09:43:30.013Z,100972.63
2022-08-01T09:46:01.699Z,100953.91
2022-08-01T09:48:30.917Z,100960.44
2022-08-01T09:51:09.230Z,100953.91
2022-08-01T09:53:52.412Z,100952.75
2022-08-01T09:56:23.279Z,100946.94
2022-08-01T09:58:59.807Z,100947.09
2022-08-01T10:01:36.760Z,100950.75
2022-08-01T10:04:10.684Z,100947.44
2022-08-01T10:06:40.841Z,100943.69
2022-08-01T10:09:11.612Z,100925.47
2022-08-01T10:11:41.487Z,100929.38
2022-08-01T10:14:10.971Z,100931.53
2022-08-01T10:16:40.812Z,100933.81
2022-08-01T10:19:15.273Z,100929.53
2022-08-01T10:21:58.136Z,100927.25
2022-08-01T10:24:35.000Z,100928.06
2022-08-01T10:27:09.393Z,100926.09
2022-08-01T10:29:46.148Z,100918.66
2022-08-01T10:32:29.277Z,100905.00
2022-08-01T10:34:58.528Z,100899.50
2022-08-01T10:37:28.069Z,100872.53
2022-08-01T10:40:27.029Z,100912.41
2022-08-01T10:42:48.574Z,100905.84
2022-08-01T10:45:18.693Z,100863.31
2022-08-01T10:47:54.051Z,100888.91
2022-08-01T10:50:30.223Z,100885.75
2022-08-01T10:53:16.038Z,100887.72
2022-08-01T10:56:02.673Z,100883.25
2022-08-01T10:58:39.788Z,100843.25
2022-08-01T11:01:20.146Z,100871.88
2022-08-01T11:04:15.960Z,100877.06
2022-08-01T11:07:07.695Z,100866.22
2022-08-01T11:09:47.116Z,100867.31
2022-08-01T11:12:24.798Z,100859.59
2022-08-01T11:15:29.736Z,100863.50
2022-08-01T11:18:02.307Z,100820.34
2022-08-01T11:20:34.400Z,100859.00
2022-08-01T11:23:29.214Z,100842.41
2022-08-01T11:26:28.874Z,100842.88
2022-08-01T11:29:22.335Z,100831.63
2022-08-01T11:31:53.187Z,100835.25
2022-08-01T11:34:22.362Z,100833.13
2022-08-01T11:37:09.815Z,100836.88
2022-08-01T11:39:39.132Z,100835.88
2022-08-01T11:42:26.827Z,100835.38
2022-08-01T11:44:57.273Z,100840.75
2022-08-01T11:47:47.904Z,100825.47
2022-08-01T11:50:38.282Z,100816.88
2022-08-01T11:53:11.205Z,100819.81
2022-08-01T11:55:51.236Z,100813.03
2022-08-01T11:58:29.434Z,100805.72
2022-08-01T12:01:02.315Z,100803.84
2022-08-01T12:03:34.387Z,100801.53
2022-08-01T12:06:03.845Z,100798.38
2022-08-01T12:08:37.544Z,100794.28
2022-08-01T12:11:07.777Z,100790.31
2022-08-01T12:13:44.506Z,100783.09
2022-08-01T12:16:15.738Z,100791.28
2022-08-01T12:18:45.400Z,100784.78
2022-08-01T12:21:14.214Z,100778.78
2022-08-01T12:23:43.131Z,100778.31
2022-08-01T12:26:29.399Z,100780.66
2022-08-01T12:29:01.070Z,100775.97
2022-08-01T12:31:38.139Z,100775.09
2022-08-01T12:34:29.360Z,100774.25
2022-08-01T12:36:59.901Z,100691.06
2022-08-01T12:39:35.883Z,100759.84
2022-08-01T12:42:11.795Z,100766.03
2022-08-01T12:44:41.627Z,100764.00
2022-08-01T12:47:13.632Z,100759.41
2022-08-01T12:49:45.756Z,100750.16
2022-08-01T12:52:14.967Z,100739.22
2022-08-01T12:55:09.966Z,100750.06
2022-08-01T12:57:42.531Z,100747.94
2022-08-01T13:00:14.590Z,100746.13
2022-08-01T13:02:45.342Z,100745.59
2022-08-01T13:05:15.929Z,100738.50
2022-08-01T13:07:47.879Z,100733.91
2022-08-01T13:10:26.200Z,100740.72
2022-08-01T13:12:57.394Z,100742.56
2022-08-01T13:15:32.229Z,100729.59
2022-08-01T13:18:04.056Z,100737.09
2022-08-01T13:20:36.614Z,100727.72
2022-08-01T13:23:18.156Z,100731.22
2022-08-01T13:26:06.198Z,100722.81
2022-08-01T13:28:37.721Z,100728.66
2022-08-01T13:31:08.510Z,100715.47
2022-08-01T13:33:46.107Z,100713.22
2022-08-01T13:36:28.182Z,100724.56
2022-08-01T13:39:14.943Z,100719.88
2022-08-01T13:41:44.304Z,100712.75
2022-08-01T13:44:13.179Z,100716.72
2022-08-01T13:46:49.304Z,100710.88
2022-08-01T13:49:22.565Z,100707.16
2022-08-01T13:51:52.382Z,100707.63
2022-08-01T13:54:21.326Z,100705.50
2022-08-01T13:56:50.385Z,100705.72
2022-08-01T13:59:19.183Z,100698.38
2022-08-01T14:01:48.937Z,100696.84
2022-08-01T14:04:18.063Z,100696.50
2022-08-01T14:06:48.707Z,100695.47
2022-08-01T14:09:24.327Z,100688.34
2022-08-01T14:11:53.583Z,100682.63
2022-08-01T14:14:22.354Z,100686.59
2022-08-01T14:16:51.203Z,100673.59
2022-08-01T14:19:23.071Z,100680.97
2022-08-01T14:22:09.465Z,100668.94
2022-08-01T14:24:38.969Z,100664.63
2022-08-01T14:27:09.909Z,100656.13
2022-08-01T14:30:00.270Z,100651.78
2022-08-01T14:32:28.995Z,100650.16
2022-08-01T14:34:58.072Z,100647.63
2022-08-01T14:37:31.755Z,100646.56
2022-08-01T14:40:05.908Z,100634.75
2022-08-01T14:42:36.269Z,100627.97
2022-08-01T14:45:05.558Z,100635.78
2022-08-01T14:47:34.367Z,100626.78
2022-08-01T14:50:04.326Z,100628.66
2022-08-01T14:52:34.648Z,100626.44
2022-08-01T14:55:03.863Z,100635.81
2022-08-01T14:57:32.767Z,100622.72
2022-08-01T15:00:01.642Z,100636.13
2022-08-01T15:02:30.486Z,100637.06
2022-08-01T15:04:59.435Z,100635.44
2022-08-01T15:07:28.202Z,100638.13
2022-08-01T15:09:58.626Z,100627.16
2022-08-01T15:12:35.709Z,100632.41
2022-08-01T15:15:16.358Z,100629.13
2022-08-01T15:17:45.123Z,100632.50
2022-08-01T15:20:14.001Z,100626.69
2022-08-01T15:22:42.703Z,100631.03
2022-08-01T15:25:13.198Z,100635.59
2022-08-01T15:27:42.061Z,100633.00
2022-08-01T15:30:11.402Z,100632.75
2022-08-01T15:32:40.451Z,100624.34
2022-08-01T15:35:11.363Z,100631.47
2022-08-01T15:37:43.032Z,100628.53
2022-08-01T15:40:14.482Z,100630.88
2022-08-01T15:42:43.278Z,100627.44
2022-08-01T15:45:37.461Z,100632.78
2022-08-01T15:48:03.223Z,100635.50
2022-08-01T15:50:32.027Z,100634.66
2022-08-01T15:53:00.900Z,100628.59
2022-08-01T15:55:31.199Z,100618.09
2022-08-01T15:57:59.934Z,100631.75
2022-08-01T16:00:33.005Z,100626.00
2022-08-01T16:03:08.922Z,100629.50
2022-08-01T16:05:42.918Z,100632.16
2022-08-01T16:08:12.657Z,100627.25
2022-08-01T16:10:43.287Z,100626.44
2022-08-01T16:13:12.320Z,100621.53
2022-08-01T16:15:41.623Z,100615.94
2022-08-01T16:18:13.181Z,100617.09
2022-08-01T16:20:45.972Z,100618.94
2022-08-01T16:23:16.103Z,100622.94
2022-08-01T16:25:46.763Z,100594.19
2022-08-01T16:28:15.622Z,100610.63
2022-08-01T16:31:00.223Z,100593.31
2022-08-01T16:33:43.469Z,100587.06
2022-08-01T16:36:24.895Z,100605.41
2022-08-01T16:38:54.030Z,100603.78
2022-08-01T16:41:24.263Z,100599.06
2022-08-01T16:43:54.629Z,100595.97
2022-08-01T16:46:25.548Z,100598.88
2022-08-01T16:48:54.970Z,100602.34
2022-08-01T16:51:23.934Z,100604.38
2022-08-01T16:53:52.755Z,100597.97
2022-08-01T16:56:21.698Z,100591.91
2022-08-01T16:58:51.986Z,100589.44
2022-08-01T17:01:58.817Z,100585.22
2022-08-01T17:04:10.172Z,100582.63
2022-08-01T17:06:39.003Z,100589.25
2022-08-01T17:09:09.516Z,100586.63
2022-08-01T17:11:38.464Z,100581.56
2022-08-01T17:14:08.779Z,100579.28
2022-08-01T17:16:37.688Z,100581.00
2022-08-01T17:19:07.017Z,100590.91
2022-08-01T17:21:38.874Z,100591.25
2022-08-01T17:24:11.610Z,100593.78
2022-08-01T17:26:44.565Z,100593.47
2022-08-01T17:29:14.757Z,100598.91
2022-08-01T17:31:43.698Z,100597.78
2022-08-01T17:34:12.469Z,100602.88
2022-08-01T17:36:41.363Z,100601.56
2022-08-01T17:39:12.629Z,100596.84
2022-08-01T17:41:41.770Z,100597.34
2022-08-01T17:44:10.719Z,100597.50
2022-08-01T17:46:40.914Z,100604.41
2022-08-01T17:49:10.202Z,100603.31
2022-08-01T17:51:39.114Z,100611.19
2022-08-01T17:54:10.862Z,100615.13
2022-08-01T17:56:44.247Z,100621.19
2022-08-01T17:59:14.919Z,100624.81
2022-08-01T18:01:45.592Z,100624.91
2022-08-01T18:04:14.582Z,100634.38
2022-08-01T18:06:58.197Z,100631.91
2022-08-01T18:09:28.269Z,100632.19
2022-08-01T18:11:57.201Z,100640.88
2022-08-01T18:14:40.237Z,100600.78
2022-08-01T18:17:11.917Z,100639.16
2022-08-01T18:19:40.766Z,100646.16
2022-08-01T18:22:28.909Z,100650.66
2022-08-01T18:25:08.327Z,100659.00
2022-08-01T18:28:19.741Z,100665.31
2022-08-01T18:30:27.351Z,100664.31
2022-08-01T18:32:57.609Z,100669.31
2022-08-01T18:35:31.781Z,100669.34
2022-08-01T18:38:16.914Z,100672.16
2022-08-01T18:40:46.119Z,100681.81
2022-08-01T18:43:14.917Z,100673.94
2022-08-01T18:45:43.778Z,100675.16
2022-08-01T18:48:15.129Z,100686.19
2022-08-01T18:50:43.948Z,100683.59
2022-08-01T18:53:12.691Z,100688.31
2022-08-01T18:55:42.029Z,100692.22
2022-08-01T18:58:12.455Z,100694.97
2022-08-01T19:00:46.191Z,100692.75
2022-08-01T19:03:17.064Z,100700.19
2022-08-01T19:05:46.126Z,100709.31
2022-08-01T19:08:14.903Z,100707.47
2022-08-01T19:10:44.162Z,100710.44
2022-08-01T19:13:13.256Z,100709.25
2022-08-01T19:15:42.030Z,100714.03
2022-08-01T19:18:10.831Z,100721.38
2022-08-01T19:20:43.107Z,100723.09
2022-08-01T19:23:25.559Z,100723.63
2022-08-01T19:25:58.010Z,100731.69
2022-08-01T19:28:29.175Z,100736.22
2022-08-01T19:30:59.856Z,100730.88
2022-08-01T19:33:30.887Z,100744.44
2022-08-01T19:36:02.298Z,100749.50
2022-08-01T19:38:32.216Z,100730.06
2022-08-01T19:41:03.643Z,100758.31
2022-08-01T19:43:36.766Z,100757.78
2022-08-01T19:46:08.623Z,100765.88
2022-08-01T19:48:53.666Z,100776.16
2022-08-01T19:51:33.355Z,100779.00
2022-08-01T19:54:06.429Z,100782.72
2022-08-01T19:56:40.631Z,100791.34
2022-08-01T19:59:13.055Z,100791.13
2022-08-01T20:01:41.892Z,100763.38
2022-08-01T20:04:11.300Z,100806.41
2022-08-01T20:06:41.995Z,100798.22
2022-08-01T20:09:10.979Z,100802.69
2022-08-01T20:11:40.691Z,100809.88
2022-08-01T20:14:09.757Z,100819.00
2022-08-01T20:16:39.485Z,100824.56
2022-08-01T20:19:08.325Z,100828.44
2022-08-01T20:21:37.742Z,100824.84
2022-08-01T20:24:11.463Z,100833.44
2022-08-01T20:26:41.745Z,100853.00
2022-08-01T20:29:13.289Z,100847.19
2022-08-01T20:31:44.279Z,100842.78
2022-08-01T20:34:16.132Z,100848.03
2022-08-01T20:36:48.068Z,100845.28
2022-08-01T20:39:28.778Z,100854.94
2022-08-01T20:41:59.514Z,100854.91
2022-08-01T20:44:32.651Z,100853.22
2022-08-01T20:47:05.180Z,100846.84
2022-08-01T20:49:35.077Z,100859.78
2022-08-01T20:52:11.627Z,100863.88
2022-08-01T20:54:43.278Z,100863.56
2022-08-01T20:57:17.979Z,100872.88
2022-08-01T20:59:55.635Z,100864.59
2022-08-01T21:02:42.966Z,100856.47
2022-08-01T21:05:13.017Z,100872.13
2022-08-01T21:07:48.438Z,100871.84
2022-08-01T21:10:20.808Z,100873.19
2022-08-01T21:12:55.873Z,100876.78
2022-08-01T21:15:31.783Z,100880.31
2022-08-01T21:18:05.117Z,100877.78
2022-08-01T21:20:35.999Z,100875.03
2022-08-01T21:23:12.875Z,100882.41
2022-08-01T21:25:44.302Z,100874.91
2022-08-01T21:28:15.911Z,100887.28
2022-08-01T21:30:53.875Z,100882.00
2022-08-01T21:33:26.402Z,100885.53
2022-08-01T21:36:01.241Z,100883.78
2022-08-01T21:38:34.806Z,100884.22
2022-08-01T21:41:08.445Z,100893.00
2022-08-01T21:43:39.255Z,100891.06
2022-08-01T21:46:08.619Z,100893.00
2022-08-01T21:48:38.985Z,100897.09
2022-08-01T21:51:19.008Z,100889.63
2022-08-01T21:53:54.091Z,100886.81
2022-08-01T21:56:33.315Z,100899.94
2022-08-01T21:59:11.684Z,100894.41
2022-08-01T22:01:52.675Z,100886.41
2022-08-01T22:04:29.298Z,100890.75
2022-08-01T22:07:00.910Z,100884.78
2022-08-01T22:09:31.373Z,100889.88
2022-08-01T22:12:05.346Z,100893.22
2022-08-01T22:14:35.699Z,100884.19
2022-08-01T22:17:04.427Z,100893.31
2022-08-01T22:19:44.072Z,100888.38
2022-08-01T22:22:44.967Z,100889.78
2022-08-01T22:25:05.611Z,100887.31
2022-08-01T22:28:06.383Z,100894.50
2022-08-01T22:30:29.037Z,100901.66
2022-08-01T22:33:15.474Z,100898.66
2022-08-01T22:35:45.942Z,100901.09
2022-08-01T22:38:15.075Z,100900.53
2022-08-01T22:40:50.930Z,100886.44
2022-08-01T22:43:30.962Z,100903.81
2022-08-01T22:46:16.122Z,100902.69
2022-08-01T22:48:50.613Z,100901.56
2022-08-01T22:51:33.189Z,100902.31
2022-08-01T22:54:09.987Z,100908.91
2022-08-01T22:56:40.875Z,100905.19
2022-08-01T22:59:16.312Z,100903.47
2022-08-01T23:01:50.556Z,100900.69
2022-08-01T23:04:33.157Z,100901.81
2022-08-01T23:07:07.211Z,100902.66
2022-08-01T23:09:53.248Z,100904.63
2022-08-01T23:12:26.513Z,100902.78
2022-08-01T23:14:58.543Z,100905.56
2022-08-01T23:17:29.807Z,100901.44
2022-08-01T23:20:00.599Z,100901.31
2022-08-01T23:22:32.457Z,100906.78
2022-08-01T23:25:04.986Z,100899.31
2022-08-01T23:27:57.881Z,100892.69
2022-08-01T23:30:32.169Z,100891.00
2022-08-01T23:33:01.582Z,100886.03
2022-08-01T23:35:31.939Z,100886.00
2022-08-01T23:38:04.518Z,100887.53
2022-08-01T23:40:34.305Z,100893.25
2022-08-01T23:43:03.839Z,100886.34
2022-08-01T23:46:02.102Z,100886.91
2022-08-01T23:48:23.946Z,100892.38
2022-08-01T23:50:54.089Z,100884.41
2022-08-01T23:53:22.881Z,100891.59
2022-08-01T23:55:52.051Z,100883.59
2022-08-01T23:58:23.067Z,100890.75
